Time;durP1;ratioP1;P1;durP2;ratioP2;P2;SDS_P1;SDS_P2;PMS_P1;PMS_P2;Temp;Humidity;BMP_temperature;BMP_pressure;BME280_temperature;BME280_humidity;BME280_pressure;Samples;Min_cycle;Max_cycle;Signal;HPM_P1;HPM_P2
2022/01/02 00:01:58;;;;;;;8.53;5.90;;;5.20;99.90;;;;;;4994558;28;20449;-90
2022/01/02 00:04:26;;;;;;;25.20;15.50;;;;;;;;;;4999472;28;20489;-90
2022/01/02 00:07:01;;;;;;;26.70;13.73;;;5.00;99.90;;;;;;4995363;28;20453;-93
2022/01/02 00:09:34;;;;;;;18.60;11.53;;;4.90;99.90;;;;;;4993215;28;20457;-92
2022/01/02 00:12:21;;;;;;;16.60;11.00;;;4.80;99.90;;;;;;4990466;28;20445;-92
2022/01/02 00:14:50;;;;;;;19.67;11.60;;;4.70;99.90;;;;;;4994113;28;20462;-91
2022/01/02 00:17:23;;;;;;;11.53;7.73;;;4.70;99.90;;;;;;4990777;28;20485;-92
2022/01/02 00:19:55;;;;;;;13.53;8.70;;;4.70;99.90;;;;;;4993726;28;20925;-92
2022/01/02 00:22:32;;;;;;;12.03;7.17;;;4.60;99.90;;;;;;4994921;28;20454;-91
2022/01/02 00:25:03;;;;;;;9.83;6.40;;;4.60;99.90;;;;;;4995160;28;20910;-91
2022/01/02 00:27:34;;;;;;;13.80;8.83;;;4.60;99.90;;;;;;4992029;28;20938;-91
2022/01/02 00:30:04;;;;;;;17.90;11.80;;;4.50;99.90;;;;;;4994615;28;20458;-93
2022/01/02 00:32:36;;;;;;;9.77;6.90;;;4.50;99.90;;;;;;4992760;28;20905;-90
2022/01/02 00:35:03;;;;;;;12.07;7.20;;;;;;;;;;4954341;29;20459;-91
2022/01/02 00:37:34;;;;;;;11.20;7.43;;;;;;;;;;4957088;28;20487;-91
2022/01/02 00:40:04;;;;;;;6.17;5.00;;;;;;;;;;4958254;29;20451;-94
2022/01/02 00:42:37;;;;;;;8.33;5.87;;;4.40;99.90;;;;;;4952860;29;20475;-94
2022/01/02 00:45:11;;;;;;;8.20;5.43;;;4.40;99.90;;;;;;4956355;29;20974;-93
2022/01/02 00:47:45;;;;;;;7.27;4.97;;;4.40;99.90;;;;;;4959001;29;20986;-91
2022/01/02 00:50:19;;;;;;;13.63;8.30;;;4.40;99.90;;;;;;4954679;29;21046;-90
2022/01/02 00:52:49;;;;;;;11.40;7.93;;;4.40;99.90;;;;;;4969906;28;20450;-90
2022/01/02 00:55:20;;;;;;;49.80;28.90;;;4.50;99.90;;;;;;4997752;28;20477;-93
2022/01/02 00:57:57;;;;;;;37.07;18.57;;;4.40;99.90;;;;;;4996212;28;20485;-94
2022/01/02 01:00:25;;;;;;;16.13;10.53;;;4.30;99.90;;;;;;4998233;28;20456;-90
2022/01/02 01:03:06;;;;;;;7.33;6.00;;;4.30;99.90;;;;;;4995648;28;21022;-90
2022/01/02 01:05:39;;;;;;;7.97;5.00;;;4.30;99.90;;;;;;4998222;28;20449;-91
2022/01/02 01:08:07;;;;;;;9.17;5.50;;;4.30;99.90;;;;;;4997815;28;20450;-89
2022/01/02 01:10:38;;;;;;;7.60;5.40;;;4.20;99.90;;;;;;4997623;28;20438;-92
2022/01/02 01:13:09;;;;;;;6.30;4.60;;;;;;;;;;4993371;28;20503;-92
2022/01/02 01:15:41;;;;;;;8.20;5.53;;;4.20;99.90;;;;;;4998316;28;20472;-93
2022/01/02 01:18:09;;;;;;;6.43;4.77;;;;;;;;;;4997691;28;20492;-89
2022/01/02 01:20:40;;;;;;;6.20;4.97;;;4.20;99.90;;;;;;4998246;28;20445;-92
2022/01/02 01:23:12;;;;;;;7.47;4.87;;;;;;;;;;4997919;28;20816;-91
2022/01/02 01:25:46;;;;;;;5.80;4.77;;;4.10;99.90;;;;;;4997122;28;20545;-93
2022/01/02 01:28:15;;;;;;;20.33;11.67;;;;;;;;;;4995803;28;20452;-95
2022/01/02 01:30:42;;;;;;;9.30;6.77;;;;;;;;;;4997744;28;20449;-92
2022/01/02 01:33:09;;;;;;;7.80;5.33;;;;;;;;;;4997874;28;20442;-90
2022/01/02 01:35:37;;;;;;;5.50;4.40;;;;;;;;;;4992812;28;20512;-93
2022/01/02 01:38:04;;;;;;;8.07;5.20;;;;;;;;;;4998964;28;20500;-91
2022/01/02 01:40:52;;;;;;;6.90;4.60;;;3.90;99.90;;;;;;4995084;28;20442;-91
2022/01/02 01:43:30;;;;;;;6.27;3.80;;;;;;;;;;4997776;28;20505;-91
2022/01/02 01:45:58;;;;;;;6.20;4.37;;;;;;;;;;5000360;28;20442;-92
2022/01/02 01:48:25;;;;;;;6.93;5.00;;;;;;;;;;4997941;28;20438;-91
2022/01/02 01:50:52;;;;;;;6.17;4.73;;;;;;;;;;4997174;28;20453;-93
2022/01/02 01:53:19;;;;;;;5.87;4.23;;;;;;;;;;4997420;28;20434;-91
2022/01/02 01:55:47;;;;;;;6.10;4.40;;;;;;;;;;4995834;28;20941;-94
2022/01/02 01:58:14;;;;;;;6.90;4.90;;;;;;;;;;4997641;28;20493;-91
2022/01/02 02:00:43;;;;;;;6.20;4.43;;;;;;;;;;5000050;28;20430;-92
2022/01/02 02:03:10;;;;;;;5.33;4.70;;;;;;;;;;4998621;28;20485;-91
2022/01/02 02:05:37;;;;;;;6.03;4.50;;;;;;;;;;4998006;28;20445;-88
2022/01/02 02:08:05;;;;;;;8.47;4.77;;;;;;;;;;4997496;28;20441;-90
2022/01/02 02:10:38;;;;;;;6.80;4.70;;;;;;;;;;4997455;28;20445;-90
2022/01/02 02:13:06;;;;;;;5.60;4.23;;;3.40;99.90;;;;;;4997524;28;20488;-91
2022/01/02 02:15:34;;;;;;;7.37;4.60;;;3.40;99.90;;;;;;4998821;28;20450;-92
2022/01/02 02:18:03;;;;;;;5.90;4.40;;;3.40;99.90;;;;;;4993186;28;20496;-92
2022/01/02 02:20:32;;;;;;;6.70;4.13;;;3.40;99.90;;;;;;4998745;28;20813;-94
2022/01/02 02:23:00;;;;;;;5.03;3.90;;;;;;;;;;4998894;28;20450;-90
2022/01/02 02:25:29;;;;;;;5.70;4.50;;;3.30;99.90;;;;;;4999864;28;20450;-90
2022/01/02 02:27:59;;;;;;;4.53;3.70;;;3.20;99.90;;;;;;4999778;28;20454;-91
2022/01/02 02:30:28;;;;;;;6.13;4.10;;;3.20;99.90;;;;;;5006207;28;20452;-90
2022/01/02 02:32:56;;;;;;;5.07;4.20;;;3.20;99.90;;;;;;5010023;28;20509;-89
2022/01/02 02:35:24;;;;;;;5.30;3.87;;;;;;;;;;5000976;28;20450;-92
2022/01/02 02:37:53;;;;;;;6.57;4.90;;;3.20;99.90;;;;;;5000391;28;20496;-91
2022/01/02 02:40:22;;;;;;;8.20;4.87;;;3.20;99.90;;;;;;4996242;28;20465;-93
2022/01/02 02:42:53;;;;;;;6.80;4.23;;;;;;;;;;4994492;28;20541;-92
2022/01/02 02:51:01;;;;;;;6.77;4.37;;;;;;;;;;4996945;28;20500;-93
2022/01/02 02:53:30;;;;;;;7.20;4.47;;;;;;;;;;4998643;28;20453;-93
2022/01/02 02:55:59;;;;;;;5.80;4.03;;;;;;;;;;4998181;28;20438;-94
2022/01/02 02:58:41;;;;;;;6.60;4.00;;;;;;;;;;4997231;28;20555;-92
2022/01/02 03:01:09;;;;;;;5.63;4.27;;;3.20;99.90;;;;;;4996555;28;20530;-92
2022/01/02 03:03:37;;;;;;;4.57;4.03;;;;;;;;;;4997809;28;20559;-91
2022/01/02 03:06:04;;;;;;;5.13;3.90;;;;;;;;;;4997574;28;20458;-90
2022/01/02 03:08:33;;;;;;;6.17;4.60;;;;;;;;;;4996442;28;20457;-91
2022/01/02 03:11:00;;;;;;;5.90;4.30;;;;;;;;;;4998066;28;20856;-89
2022/01/02 03:13:28;;;;;;;6.30;4.30;;;;;;;;;;4995534;28;20449;-91
2022/01/02 03:15:55;;;;;;;6.00;4.63;;;;;;;;;;4996102;28;20438;-92
2022/01/02 03:18:22;;;;;;;4.87;3.87;;;;;;;;;;4994871;28;20482;-91
2022/01/02 03:20:49;;;;;;;4.87;4.20;;;;;;;;;;4998143;28;20442;-93
2022/01/02 03:23:17;;;;;;;5.20;3.80;;;;;;;;;;4998472;28;20500;-92
2022/01/02 03:25:45;;;;;;;6.40;4.20;;;3.70;99.90;;;;;;4997734;28;20434;-90
2022/01/02 03:28:12;;;;;;;4.20;3.70;;;;;;;;;;4995673;28;20448;-90
2022/01/02 03:30:41;;;;;;;4.67;3.70;;;;;;;;;;4996003;28;20453;-90
2022/01/02 03:33:08;;;;;;;5.60;4.07;;;;;;;;;;4995291;28;20458;-90
2022/01/02 03:35:35;;;;;;;6.60;3.90;;;;;;;;;;4997583;28;20453;-90
2022/01/02 03:38:03;;;;;;;6.80;4.50;;;;;;;;;;4995191;28;20473;-90
2022/01/02 03:40:30;;;;;;;5.60;4.10;;;;;;;;;;4994355;28;20445;-90
2022/01/02 03:42:58;;;;;;;7.90;3.53;;;3.90;99.90;;;;;;4995141;28;20536;-91
2022/01/02 03:45:26;;;;;;;8.30;4.37;;;;;;;;;;4993436;28;20454;-94
2022/01/02 03:47:53;;;;;;;5.10;3.97;;;;;;;;;;4996250;28;20450;-91
2022/01/02 03:50:20;;;;;;;6.13;3.90;;;;;;;;;;4995743;28;20458;-91
2022/01/02 03:52:47;;;;;;;5.20;3.67;;;;;;;;;;4997949;28;20442;-90
2022/01/02 03:55:15;;;;;;;4.63;3.33;;;;;;;;;;4994690;28;20446;-93
2022/01/02 03:57:42;;;;;;;4.17;3.40;;;;;;;;;;4997663;28;20437;-91
2022/01/02 04:00:14;;;;;;;5.40;3.70;;;3.90;99.90;;;;;;4994715;28;20473;-90
2022/01/02 04:02:41;;;;;;;3.87;3.37;;;;;;;;;;4996587;28;20486;-90
2022/01/02 04:05:10;;;;;;;5.30;3.40;;;4.40;99.90;;;;;;4998149;28;20442;-91
2022/01/02 04:07:40;;;;;;;4.50;3.53;;;;;;;;;;4994437;28;20442;-90
2022/01/02 04:10:10;;;;;;;4.53;3.13;;;5.90;99.90;;;;;;4995921;28;20461;-92
2022/01/02 04:12:38;;;;;;;3.80;3.03;;;;;;;;;;4995820;28;20446;-93
2022/01/02 04:15:08;;;;;;;4.33;3.53;;;4.40;99.90;;;;;;4995880;28;20445;-90
2022/01/02 04:17:37;;;;;;;5.17;3.40;;;4.40;99.90;;;;;;4996061;28;20818;-92
2022/01/02 04:20:07;;;;;;;5.47;3.30;;;4.40;99.90;;;;;;4995425;28;20508;-94
2022/01/02 04:22:34;;;;;;;6.40;3.20;;;;;;;;;;4995174;28;20910;-92
2022/01/02 04:25:02;;;;;;;4.37;3.60;;;;;;;;;;4995326;28;20453;-91
2022/01/02 04:27:29;;;;;;;5.10;3.67;;;;;;;;;;4994789;28;20453;-90
2022/01/02 04:29:56;;;;;;;4.27;3.60;;;4.80;99.90;;;;;;4995817;28;20449;-93
2022/01/02 04:32:23;;;;;;;4.07;2.90;;;;;;;;;;4995245;28;20441;-92
2022/01/02 04:34:52;;;;;;;6.80;3.90;;;5.00;99.90;;;;;;4995593;28;20437;-92
2022/01/02 04:37:19;;;;;;;4.00;2.73;;;;;;;;;;4995378;28;20806;-93
2022/01/02 04:39:46;;;;;;;3.67;3.10;;;;;;;;;;4995451;28;20497;-92
2022/01/02 04:42:14;;;;;;;2.73;2.37;;;;;;;;;;4994852;28;20470;-93
2022/01/02 04:44:41;;;;;;;3.90;2.60;;;;;;;;;;4996271;28;20438;-93
2022/01/02 04:47:08;;;;;;;2.80;2.43;;;;;;;;;;4995213;28;20438;-93
2022/01/02 04:49:35;;;;;;;3.57;2.47;;;;;;;;;;4993561;28;20445;-93
2022/01/02 04:52:04;;;;;;;4.37;2.70;;;;;;;;;;4995341;28;20464;-95
2022/01/02 04:54:31;;;;;;;4.33;2.80;;;;;;;;;;4995033;28;20453;-93
2022/01/02 04:56:58;;;;;;;3.30;2.53;;;;;;;;;;4994149;28;20446;-93
2022/01/02 04:59:26;;;;;;;4.17;2.80;;;;;;;;;;4996388;28;20493;-92
2022/01/02 05:01:53;;;;;;;3.17;2.50;;;;;;;;;;4995144;28;20438;-94
2022/01/02 05:04:20;;;;;;;3.70;2.87;;;;;;;;;;4997413;28;20474;-92
2022/01/02 05:06:47;;;;;;;4.20;3.10;;;;;;;;;;4995445;28;20450;-93
2022/01/02 05:09:15;;;;;;;5.43;2.70;;;5.40;99.90;;;;;;4995246;28;20438;-92
2022/01/02 05:11:43;;;;;;;4.13;2.80;;;;;;;;;;4994367;28;20444;-90
2022/01/02 05:14:10;;;;;;;3.27;2.77;;;;;;;;;;4995497;28;20465;-93
2022/01/02 05:16:40;;;;;;;3.00;2.60;;;5.40;99.90;;;;;;4995574;28;20446;-94
2022/01/02 05:19:07;;;;;;;3.77;2.97;;;;;;;;;;4986895;28;20477;-94
2022/01/02 05:21:34;;;;;;;3.17;2.47;;;;;;;;;;4994683;28;20450;-93
2022/01/02 05:24:01;;;;;;;3.97;2.83;;;;;;;;;;4997369;28;20445;-92
2022/01/02 05:26:31;;;;;;;3.57;3.00;;;5.60;99.90;;;;;;4998793;28;20461;-93
2022/01/02 05:28:58;;;;;;;3.83;3.00;;;;;;;;;;4994616;28;20521;-92
2022/01/02 05:31:25;;;;;;;3.97;3.40;;;;;;;;;;4997401;28;20918;-92
2022/01/02 05:33:52;;;;;;;3.43;3.13;;;;;;;;;;4994285;28;20449;-92
2022/01/02 05:36:21;;;;;;;7.63;4.53;;;5.40;99.90;;;;;;5001291;28;20497;-94
2022/01/02 05:38:48;;;;;;;4.30;3.50;;;;;;;;;;4995285;28;20494;-91
2022/01/02 05:41:16;;;;;;;7.00;4.50;;;;;;;;;;5001286;28;20458;-91
2022/01/02 05:43:44;;;;;;;7.33;4.60;;;;;;;;;;5007377;28;20477;-91
2022/01/02 05:46:11;;;;;;;5.93;4.07;;;;;;;;;;5004210;28;20461;-91
2022/01/02 05:48:38;;;;;;;4.57;3.40;;;;;;;;;;4998813;28;20502;-92
2022/01/02 05:51:05;;;;;;;7.57;4.03;;;;;;;;;;4995593;28;20438;-92
2022/01/02 05:53:33;;;;;;;6.03;4.00;;;;;;;;;;4997786;28;20449;-91
2022/01/02 05:56:00;;;;;;;5.20;3.80;;;;;;;;;;4998122;28;20434;-94
2022/01/02 05:58:27;;;;;;;6.83;4.33;;;;;;;;;;4998563;28;20946;-93
2022/01/02 06:00:56;;;;;;;7.23;4.67;;;;;;;;;;4996967;28;20821;-94
2022/01/02 06:03:23;;;;;;;3.70;3.33;;;;;;;;;;4997919;28;21233;-93
2022/01/02 06:05:54;;;;;;;4.77;4.20;;;;;;;;;;4993748;28;20480;-95
2022/01/02 06:08:21;;;;;;;4.47;4.03;;;;;;;;;;5005807;28;20457;-95
2022/01/02 06:10:48;;;;;;;5.20;4.30;;;;;;;;;;5015743;28;20496;-92
2022/01/02 06:13:15;;;;;;;6.40;4.00;;;;;;;;;;5017476;28;20442;-92
2022/01/02 06:15:43;;;;;;;6.77;5.40;;;;;;;;;;5014840;28;20442;-91
2022/01/02 06:18:11;;;;;;;7.07;4.97;;;;;;;;;;5015988;28;20771;-91
2022/01/02 06:20:39;;;;;;;6.00;4.60;;;;;;;;;;5011960;28;20980;-94
2022/01/02 06:23:06;;;;;;;4.67;4.20;;;;;;;;;;5013258;28;20445;-91
2022/01/02 06:25:33;;;;;;;6.13;4.50;;;;;;;;;;5015481;28;20449;-90
2022/01/02 06:28:01;;;;;;;5.47;4.23;;;;;;;;;;5013581;28;20441;-91
2022/01/02 06:30:28;;;;;;;6.27;4.30;;;;;;;;;;5016260;28;20920;-91
2022/01/02 06:32:55;;;;;;;3.33;2.43;;;;;;;;;;4996466;28;20822;-91
2022/01/02 06:35:25;;;;;;;5.70;3.50;;;;;;;;;;4996761;28;20438;-91
2022/01/02 06:40:34;;;;;;;3.83;2.77;;;;;;;;;;5001437;28;20528;-92
2022/01/02 06:43:01;;;;;;;4.07;2.83;;;;;;;;;;4998268;28;20961;-91
2022/01/02 06:45:29;;;;;;;1.67;1.57;;;;;;;;;;5013007;28;20465;-90
2022/01/02 06:47:56;;;;;;;2.30;2.07;;;;;;;;;;5007711;28;21003;-92
2022/01/02 06:50:36;;;;;;;1.83;1.50;;;;;;;;;;5007789;28;20441;-92
2022/01/02 06:53:06;;;;;;;1.77;1.20;;;;;;;;;;4996140;28;20449;-91
2022/01/02 06:55:33;;;;;;;1.10;0.73;;;;;;;;;;4996018;28;20456;-91
2022/01/02 06:58:01;;;;;;;1.57;1.20;;;;;;;;;;5002216;28;20799;-92
2022/01/02 07:00:28;;;;;;;1.13;0.70;;;;;;;;;;5006762;28;20489;-92
2022/01/02 07:02:55;;;;;;;1.07;0.77;;;;;;;;;;5006445;28;20489;-90
2022/01/02 07:05:25;;;;;;;1.43;1.03;;;;;;;;;;5007177;28;20471;-94
2022/01/02 07:07:56;;;;;;;1.73;1.27;;;;;;;;;;5005552;28;20465;-94
2022/01/02 07:10:26;;;;;;;1.63;1.00;;;;;;;;;;5001374;28;20449;-92
2022/01/02 07:12:56;;;;;;;1.80;0.77;;;9.90;99.90;;;;;;5007441;28;20451;-91
2022/01/02 07:15:26;;;;;;;1.17;1.00;;;;;;;;;;5003136;28;20439;-91
2022/01/02 07:17:53;;;;;;;1.17;1.00;;;;;;;;;;5010409;28;20447;-91
2022/01/02 07:20:20;;;;;;;1.13;0.97;;;;;;;;;;5004689;28;21005;-91
2022/01/02 07:22:47;;;;;;;2.93;1.00;;;;;;;;;;5015365;28;20458;-93
2022/01/02 07:25:16;;;;;;;1.30;1.20;;;10.10;99.90;;;;;;4995998;28;20450;-90
2022/01/02 07:27:43;;;;;;;1.10;0.93;;;;;;;;;;4991797;28;21014;-89
2022/01/02 07:30:10;;;;;;;1.30;1.03;;;;;;;;;;4996526;28;20451;-92
2022/01/02 07:32:39;;;;;;;1.13;1.03;;;;;;;;;;4996769;28;20467;-92
2022/01/02 07:35:07;;;;;;;1.93;1.10;;;10.40;99.90;;;;;;4996181;28;20457;-91
2022/01/02 07:37:35;;;;;;;1.10;1.03;;;;;;;;;;4995696;28;20455;-91
2022/01/02 07:40:02;;;;;;;0.90;0.80;;;;;;;;;;4995966;28;20491;-93
2022/01/02 07:42:30;;;;;;;1.07;0.80;;;;;;;;;;4994823;28;20444;-91
2022/01/02 07:44:58;;;;;;;1.43;1.27;;;;;;;;;;4995530;28;20441;-93
2022/01/02 07:47:25;;;;;;;1.50;1.00;;;;;;;;;;4997995;28;20455;-90
2022/01/02 07:49:53;;;;;;;1.23;0.80;;;;;;;;;;4994970;28;20456;-90
2022/01/02 07:52:20;;;;;;;2.07;1.37;;;;;;;;;;4996178;28;20444;-89
2022/01/02 07:54:47;;;;;;;5.23;1.10;;;;;;;;;;4996100;28;20452;-90
2022/01/02 07:57:14;;;;;;;3.20;1.60;;;;;;;;;;4993847;28;20944;-92
2022/01/02 07:59:43;;;;;;;2.00;1.37;;;;;;;;;;4996932;28;20503;-91
2022/01/02 08:02:13;;;;;;;2.40;1.20;;;;;;;;;;4994335;28;20474;-90
2022/01/02 08:04:40;;;;;;;1.47;1.10;;;;;;;;;;4994223;28;20456;-92
2022/01/02 08:07:09;;;;;;;3.20;1.50;;;;;;;;;;5000843;28;20443;-92
2022/01/02 08:09:39;;;;;;;1.40;1.20;;;;;;;;;;5013791;28;20466;-90
2022/01/02 08:12:07;;;;;;;1.70;1.40;;;;;;;;;;4996933;28;20813;-90
2022/01/02 08:14:34;;;;;;;1.33;1.20;;;;;;;;;;5010854;28;20448;-91
2022/01/02 08:17:05;;;;;;;1.23;1.13;;;9.80;99.90;;;;;;5006494;28;20451;-94
2022/01/02 08:19:32;;;;;;;1.43;1.17;;;;;;;;;;5005514;28;20435;-93
2022/01/02 08:22:20;;;;;;;1.50;1.27;;;9.90;99.90;;;;;;5015106;28;20452;-92
2022/01/02 08:24:47;;;;;;;1.23;0.87;;;;;;;;;;5011995;28;20456;-92
2022/01/02 08:27:14;;;;;;;1.93;1.20;;;;;;;;;;5014710;28;20805;-94
2022/01/02 08:29:41;;;;;;;1.37;1.20;;;;;;;;;;5012828;28;20489;-92
2022/01/02 08:32:10;;;;;;;1.73;1.37;;;;;;;;;;5014965;28;20451;-91
2022/01/02 08:34:37;;;;;;;1.03;0.93;;;;;;;;;;5014724;28;20448;-92
2022/01/02 08:37:04;;;;;;;1.33;1.23;;;;;;;;;;5014466;28;20433;-91
2022/01/02 08:39:31;;;;;;;0.97;0.90;;;;;;;;;;5014144;28;20489;-92
2022/01/02 08:41:58;;;;;;;1.63;1.40;;;;;;;;;;5013717;28;20820;-95
2022/01/02 08:44:25;;;;;;;2.13;1.87;;;;;;;;;;5015235;28;20443;-93
2022/01/02 08:46:53;;;;;;;1.43;1.17;;;;;;;;;;5016126;28;20442;-92
2022/01/02 08:49:22;;;;;;;1.47;1.13;;;10.70;99.90;;;;;;5015766;28;20452;-89
2022/01/02 08:51:50;;;;;;;2.10;1.53;;;;;;;;;;5013842;28;20517;-92
2022/01/02 08:54:18;;;;;;;1.87;1.30;;;;;;;;;;5016892;28;20472;-91
2022/01/02 08:56:45;;;;;;;2.37;1.43;;;;;;;;;;5028147;28;20458;-92
2022/01/02 08:59:12;;;;;;;1.60;1.20;;;;;;;;;;5027743;28;20443;-93
2022/01/02 09:01:39;;;;;;;1.53;1.20;;;;;;;;;;5019928;28;20498;-90
2022/01/02 09:04:06;;;;;;;2.20;1.40;;;;;;;;;;5017608;28;20983;-91
2022/01/02 09:06:34;;;;;;;3.63;1.37;;;11.00;99.90;;;;;;5020229;28;20547;-90
2022/01/02 09:09:01;;;;;;;2.90;1.33;;;;;;;;;;5013094;28;20455;-93
2022/01/02 09:11:29;;;;;;;1.73;1.10;;;;;;;;;;5016886;28;20834;-90
2022/01/02 09:13:56;;;;;;;2.93;1.10;;;;;;;;;;5017786;28;20445;-92
2022/01/02 09:16:23;;;;;;;1.53;1.07;;;;;;;;;;5018487;28;20806;-92
2022/01/02 09:18:50;;;;;;;1.30;1.00;;;;;;;;;;5019048;28;20468;-90
2022/01/02 09:21:17;;;;;;;2.03;1.23;;;;;;;;;;5015968;28;20481;-91
2022/01/02 09:23:46;;;;;;;1.20;1.10;;;;;;;;;;5017716;28;20458;-92
2022/01/02 09:26:14;;;;;;;1.50;1.10;;;;;;;;;;5020824;28;20446;-90
2022/01/02 09:28:42;;;;;;;1.30;1.10;;;12.40;99.90;;;;;;5025998;28;20451;-91
2022/01/02 09:31:09;;;;;;;1.27;1.17;;;;;;;;;;5025523;28;20462;-92
2022/01/02 09:33:36;;;;;;;1.40;1.10;;;;;;;;;;5020219;28;20857;-93
2022/01/02 09:36:04;;;;;;;1.17;1.03;;;;;;;;;;5017771;28;20856;-89
2022/01/02 09:38:31;;;;;;;1.10;0.90;;;;;;;;;;5016949;28;20452;-93
2022/01/02 09:41:00;;;;;;;3.27;1.37;;;11.90;99.90;;;;;;5018504;28;20508;-90
2022/01/02 09:43:27;;;;;;;1.20;1.00;;;;;;;;;;5018485;28;20445;-91
2022/01/02 09:45:55;;;;;;;2.10;1.30;;;;;;;;;;5017302;28;20799;-92
2022/01/02 09:48:22;;;;;;;2.60;1.27;;;11.90;99.90;;;;;;5017131;28;20462;-91
2022/01/02 09:50:51;;;;;;;1.03;0.90;;;11.90;99.90;;;;;;5017429;28;20450;-91
2022/01/02 09:53:19;;;;;;;1.27;1.07;;;;;;;;;;5014955;28;20454;-93
2022/01/02 09:55:47;;;;;;;2.73;1.30;;;;;;;;;;5017448;28;20889;-93
2022/01/02 09:58:15;;;;;;;1.93;1.13;;;;;;;;;;5016343;28;20453;-91
2022/01/02 10:00:45;;;;;;;3.13;2.27;;;11.90;99.90;;;;;;5017444;28;20478;-93
2022/01/02 10:03:12;;;;;;;3.10;1.00;;;;;;;;;;5015446;28;20492;-93
2022/01/02 10:05:51;;;;;;;1.03;0.70;;;12.00;99.90;;;;;;5016477;28;20440;-92
2022/01/02 10:08:25;;;;;;;1.57;1.40;;;12.00;99.90;;;;;;5016882;28;20490;-94
2022/01/02 10:11:00;;;;;;;1.60;0.90;;;12.10;99.90;;;;;;5016584;28;20468;-92
2022/01/02 10:13:43;;;;;;;11.20;7.30;;;12.10;99.90;;;;;;5018352;28;20491;-92
2022/01/02 10:16:20;;;;;;;2.73;2.30;;;12.10;99.90;;;;;;5018727;28;20452;-92
2022/01/02 10:18:48;;;;;;;3.63;2.43;;;;;;;;;;5017917;28;20471;-93
2022/01/02 10:21:27;;;;;;;2.60;1.60;;;12.10;99.90;;;;;;5019024;28;20503;-92
2022/01/02 10:24:13;;;;;;;1.63;1.20;;;12.10;99.90;;;;;;5014425;28;20914;-90
2022/01/02 10:26:41;;;;;;;2.70;1.60;;;;;;;;;;5015842;28;20446;-94
2022/01/02 10:29:13;;;;;;;1.50;1.40;;;12.20;99.20;;;;;;5017200;28;20485;-93
2022/01/02 10:31:41;;;;;;;2.00;1.30;;;;;;;;;;5012922;28;20450;-91
2022/01/02 10:34:08;;;;;;;1.70;1.47;;;;;;;;;;5017978;28;20446;-88
2022/01/02 10:36:37;;;;;;;2.10;1.87;;;12.40;99.10;;;;;;5017731;28;21039;-92
2022/01/02 10:39:09;;;;;;;2.10;0.97;;;12.40;99.20;;;;;;5017940;28;20563;-92
2022/01/02 10:41:38;;;;;;;1.07;0.97;;;12.50;99.10;;;;;;5015725;28;20489;-92
2022/01/02 10:44:29;;;;;;;4.37;1.00;;;12.40;99.40;;;;;;5016814;28;20447;-91
2022/01/02 10:47:11;;;;;;;4.80;3.90;;;12.50;98.80;;;;;;5014473;28;20941;-93
2022/01/02 10:49:58;;;;;;;3.80;3.40;;;12.60;98.80;;;;;;5016370;28;20529;-95
2022/01/02 10:52:27;;;;;;;4.40;3.30;;;12.70;98.70;;;;;;5018762;28;20541;-94
2022/01/02 10:54:55;;;;;;;9.17;7.60;;;;;;;;;;5019633;28;20426;-90
2022/01/02 10:57:22;;;;;;;4.10;3.80;;;;;;;;;;5011788;28;20536;-95
2022/01/02 10:59:56;;;;;;;3.80;2.83;;;12.90;98.10;;;;;;4998326;28;20822;-92
2022/01/02 11:02:25;;;;;;;5.03;4.03;;;12.90;98.10;;;;;;4997403;28;20833;-92
2022/01/02 11:04:58;;;;;;;3.53;3.20;;;12.90;97.80;;;;;;5015550;28;20434;-92
2022/01/02 11:07:26;;;;;;;2.70;2.50;;;13.00;98.10;;;;;;4996665;28;20880;-92
2022/01/02 11:09:55;;;;;;;0.83;0.83;;;13.00;97.50;;;;;;4961626;28;20455;-90
2022/01/02 11:12:23;;;;;;;1.37;1.10;;;13.00;97.70;;;;;;4994386;28;20460;-93
2022/01/02 11:14:53;;;;;;;2.03;1.33;;;13.00;98.20;;;;;;5000061;28;20447;-92
2022/01/02 11:17:21;;;;;;;1.40;0.83;;;;;;;;;;5003666;28;20467;-91
2022/01/02 11:19:48;;;;;;;1.93;1.00;;;;;;;;;;5013809;28;20476;-91
2022/01/02 11:22:22;;;;;;;0.90;0.60;;;12.80;98.10;;;;;;5011329;28;21010;-91
2022/01/02 11:24:56;;;;;;;1.50;1.13;;;12.90;98.30;;;;;;5014212;28;20975;-91
2022/01/02 11:27:28;;;;;;;0.93;0.60;;;12.80;98.30;;;;;;5011543;28;20513;-93
2022/01/02 11:29:57;;;;;;;0.93;0.70;;;12.80;98.60;;;;;;5014906;28;20463;-94
2022/01/02 11:32:26;;;;;;;5.87;3.03;;;12.70;98.70;;;;;;5011962;28;20978;-89
2022/01/02 11:34:53;;;;;;;2.77;2.43;;;;;;;;;;5012140;28;20458;-90
2022/01/02 11:37:24;;;;;;;1.83;0.80;;;12.50;99.10;;;;;;5012764;28;20450;-91
2022/01/02 11:39:52;;;;;;;1.20;1.00;;;;;;;;;;4995013;28;20850;-91
2022/01/02 11:42:44;;;;;;;3.70;1.17;;;12.40;99.10;;;;;;5014633;28;20487;-91
2022/01/02 11:45:39;;;;;;;1.67;1.27;;;12.40;99.10;;;;;;5014156;28;20964;-90
2022/01/02 11:48:29;;;;;;;1.07;0.97;;;12.40;99.50;;;;;;5018507;28;20446;-95
2022/01/02 11:50:56;;;;;;;1.60;1.10;;;;;;;;;;5020040;28;20458;-93
2022/01/02 11:53:26;;;;;;;1.47;1.00;;;;;;;;;;5017184;28;21010;-89
2022/01/02 11:55:55;;;;;;;1.70;1.40;;;12.30;99.40;;;;;;5014602;28;20467;-91
2022/01/02 11:58:49;;;;;;;2.50;1.27;;;12.40;99.00;;;;;;5017489;28;20516;-91
2022/01/02 12:01:49;;;;;;;2.07;1.70;;;12.40;99.10;;;;;;5017377;28;20498;-89
2022/01/02 12:04:17;;;;;;;3.13;2.87;;;12.40;99.30;;;;;;5035449;28;20529;-92
2022/01/02 12:06:45;;;;;;;1.57;1.40;;;;;;;;;;5039626;28;20453;-88
2022/01/02 12:09:37;;;;;;;2.10;1.70;;;12.40;99.00;;;;;;5037608;28;20446;-89
2022/01/02 12:12:06;;;;;;;2.87;2.60;;;12.50;99.10;;;;;;5030694;28;20463;-90
2022/01/02 12:14:51;;;;;;;1.50;1.40;;;12.70;98.80;;;;;;4979574;28;20458;-87
2022/01/02 12:17:23;;;;;;;3.03;1.73;;;;;;;;;;4972286;28;20452;-92
2022/01/02 12:20:14;;;;;;;4.37;2.77;;;12.90;98.00;;;;;;4972051;28;20463;-90
2022/01/02 12:22:46;;;;;;;2.90;2.70;;;13.00;97.90;;;;;;4952216;28;21097;-92
2022/01/02 12:25:16;;;;;;;1.97;1.70;;;13.10;97.30;;;;;;4969885;28;20515;-90
2022/01/02 12:27:55;;;;;;;5.60;5.03;;;13.30;97.20;;;;;;4974718;28;20582;-91
2022/01/02 12:30:22;;;;;;;2.70;2.13;;;;;;;;;;4980572;28;20484;-90
2022/01/02 12:32:50;;;;;;;2.10;1.80;;;13.60;96.70;;;;;;5013243;28;20447;-92
2022/01/02 12:35:20;;;;;;;3.40;2.93;;;13.90;95.90;;;;;;5040859;28;20448;-91
2022/01/02 12:37:47;;;;;;;1.60;1.50;;;;;;;;;;5038948;28;20443;-90
2022/01/02 12:40:19;;;;;;;2.30;1.53;;;14.40;95.00;;;;;;5036567;28;20433;-92
2022/01/02 12:42:47;;;;;;;14.53;2.80;;;14.60;95.20;;;;;;5037383;28;20504;-87
2022/01/02 12:45:17;;;;;;;1.57;1.17;;;15.00;95.00;;;;;;5037661;28;20513;-89
2022/01/02 12:47:55;;;;;;;6.77;6.07;;;15.00;94.70;;;;;;5037672;28;20450;-88
2022/01/02 12:50:26;;;;;;;2.73;1.57;;;15.10;94.90;;;;;;5038371;28;20821;-90
2022/01/02 12:52:54;;;;;;;6.13;5.53;;;;;;;;;;5017128;28;21015;-90
2022/01/02 12:55:21;;;;;;;1.43;1.03;;;;;;;;;;5013416;28;20461;-89
2022/01/02 12:57:49;;;;;;;5.10;2.10;;;15.10;95.20;;;;;;5012980;28;20482;-93
2022/01/02 13:00:16;;;;;;;4.37;2.00;;;;;;;;;;5011667;28;20860;-88
2022/01/02 13:02:44;;;;;;;2.33;1.97;;;;;;;;;;5011938;28;20665;-90
2022/01/02 13:05:13;;;;;;;5.07;3.20;;;;;;;;;;5016632;28;20454;-89
2022/01/02 13:07:40;;;;;;;3.37;2.73;;;;;;;;;;5013368;28;20491;-88
2022/01/02 13:10:12;;;;;;;2.27;2.07;;;15.10;95.10;;;;;;5019396;28;20447;-92
2022/01/02 13:12:40;;;;;;;2.10;1.20;;;14.90;95.10;;;;;;5037128;28;20454;-93
2022/01/02 13:15:08;;;;;;;2.53;1.40;;;14.80;95.20;;;;;;5036380;28;20462;-93
2022/01/02 13:17:38;;;;;;;3.03;2.10;;;15.00;94.80;;;;;;5040191;28;20977;-90
2022/01/02 13:20:08;;;;;;;1.10;1.00;;;15.00;94.40;;;;;;5034239;28;20475;-90
2022/01/02 13:22:38;;;;;;;0.70;0.70;;;14.90;94.50;;;;;;5033055;28;20499;-94
2022/01/02 13:25:06;;;;;;;1.67;1.27;;;;;;;;;;5038498;28;20492;-92
2022/01/02 13:27:36;;;;;;;1.80;1.20;;;;;;;;;;5038194;28;20662;-92
2022/01/02 13:30:06;;;;;;;2.23;1.17;;;14.90;94.30;;;;;;5035464;28;20462;-92
2022/01/02 13:32:38;;;;;;;1.80;1.40;;;;;;;;;;5037904;28;20938;-92
2022/01/02 13:35:07;;;;;;;2.07;0.97;;;14.90;94.40;;;;;;5037087;28;20440;-92
2022/01/02 13:37:38;;;;;;;1.67;1.30;;;14.80;94.30;;;;;;5038623;28;20894;-92
2022/01/02 13:40:08;;;;;;;1.13;0.90;;;14.80;94.40;;;;;;5035271;28;20461;-94
2022/01/02 13:42:38;;;;;;;1.20;0.80;;;14.80;94.50;;;;;;5038890;28;20495;-93
2022/01/02 13:45:14;;;;;;;3.60;1.33;;;14.60;94.30;;;;;;5040464;28;20447;-93
2022/01/02 13:47:42;;;;;;;1.50;1.17;;;;;;;;;;5039747;28;20477;-92
2022/01/02 13:50:10;;;;;;;1.60;1.07;;;14.90;94.50;;;;;;5038246;28;20437;-92
2022/01/02 13:52:56;;;;;;;2.80;0.97;;;14.70;94.40;;;;;;5037786;28;20492;-91
2022/01/02 13:55:29;;;;;;;2.83;1.60;;;14.80;95.10;;;;;;5039760;28;20541;-93
2022/01/02 13:57:57;;;;;;;1.73;0.97;;;;;;;;;;5051587;28;20454;-94
2022/01/02 14:00:25;;;;;;;1.60;1.20;;;14.60;95.30;;;;;;5059625;28;20450;-92
2022/01/02 14:02:54;;;;;;;2.93;2.23;;;;;;;;;;5037566;28;20512;-94
2022/01/02 14:05:21;;;;;;;2.00;1.70;;;;;;;;;;5037444;28;20521;-92
2022/01/02 14:07:49;;;;;;;1.33;0.90;;;;;;;;;;5037200;28;20835;-89
2022/01/02 14:10:19;;;;;;;2.10;1.20;;;14.30;95.90;;;;;;5038012;28;20459;-92
2022/01/02 14:12:46;;;;;;;9.60;5.67;;;;;;;;;;5035144;28;20811;-93
2022/01/02 14:15:21;;;;;;;1.73;1.60;;;14.40;96.10;;;;;;5037439;28;20465;-95
2022/01/02 14:17:49;;;;;;;1.80;1.20;;;14.20;96.40;;;;;;5036517;28;20918;-91